Time;durP1;ratioP1;P1;durP2;ratioP2;P2;SDS_P1;SDS_P2;PMS_P1;PMS_P2;Temp;Humidity;BMP_temperature;BMP_pressure;BME280_temperature;BME280_humidity;BME280_pressure;Samples;Min_cycle;Max_cycle;Signal;HPM_P1;HPM_P2
2022/06/10 00:01:13;;;;;;;17.15;14.45;;;;;;;19.64;82.94;99934.44;1729886;83;25582;-69
2022/06/10 00:03:40;;;;;;;15.88;13.83;;;;;;;19.61;82.96;99937.34;1729732;83;26471;-70
2022/06/10 00:06:10;;;;;;;16.52;14.70;;;;;;;19.58;83.00;99936.16;1729682;83;25398;-69
2022/06/10 00:08:41;;;;;;;18.17;14.90;;;;;;;19.58;83.33;99932.61;1729805;83;26872;-70
2022/06/10 00:11:10;;;;;;;16.15;14.60;;;;;;;19.56;83.53;99943.98;1729686;82;25716;-70
2022/06/10 00:13:39;;;;;;;;;;;;;;;19.55;83.47;99947.87;1732386;82;25666;-70
2022/06/10 00:16:08;;;;;;;16.40;14.70;;;;;;;19.52;83.60;99950.00;1730007;82;25617;-69
2022/06/10 00:18:35;;;;;;;15.70;14.13;;;;;;;19.50;83.40;99948.23;1730104;83;25746;-69
2022/06/10 00:21:06;;;;;;;15.80;14.10;;;;;;;19.49;83.32;99944.48;1729820;83;27288;-69
2022/06/10 00:23:32;;;;;;;16.45;14.75;;;;;;;19.48;83.22;99941.53;1729765;82;25452;-69
2022/06/10 00:25:59;;;;;;;18.70;15.28;;;;;;;19.46;83.37;99945.23;1720546;82;25653;-69
2022/06/10 00:28:26;;;;;;;16.55;14.60;;;;;;;19.44;83.28;99940.72;1710244;83;26333;-69
2022/06/10 00:30:52;;;;;;;18.05;15.60;;;;;;;19.41;83.47;99946.39;1710273;83;25422;-69
2022/06/10 00:33:18;;;;;;;18.07;15.70;;;;;;;19.38;83.52;99959.48;1710238;83;28094;-70
2022/06/10 00:35:45;;;;;;;17.37;14.55;;;;;;;19.35;83.62;99963.75;1710094;83;25551;-69
2022/06/10 00:38:12;;;;;;;17.37;14.73;;;;;;;19.34;83.58;99964.12;1710215;83;25758;-69
2022/06/10 00:40:43;;;;;;;18.50;14.98;;;;;;;19.31;83.70;99962.16;1710178;83;25692;-69
2022/06/10 00:43:14;;;;;;;18.30;15.05;;;;;;;19.30;83.87;99959.19;1709590;82;25648;-69
2022/06/10 00:46:18;;;;;;;16.40;14.68;;;;;;;19.29;83.77;99957.05;1710199;82;27848;-69
2022/06/10 00:49:13;;;;;;;18.52;15.30;;;;;;;19.29;83.72;99968.01;1710133;83;25671;-68
2022/06/10 00:51:53;;;;;;;17.20;15.35;;;;;;;19.27;83.72;99961.31;1685869;83;25427;-68
2022/06/10 00:54:42;;;;;;;18.65;13.95;;;;;;;19.24;83.81;99964.23;1710373;83;25867;-67
2022/06/10 00:57:25;;;;;;;19.15;15.38;;;;;;;19.21;83.98;99960.28;1710582;83;25590;-68
2022/06/10 01:00:15;;;;;;;17.05;15.28;;;;;;;19.19;84.00;99959.88;1710395;83;27343;-69
2022/06/10 01:02:42;;;;;;;16.82;15.08;;;;;;;19.17;83.98;99965.51;1710303;83;25618;-67
2022/06/10 01:05:17;;;;;;;19.52;16.80;;;;;;;19.14;84.43;99951.98;1710305;83;25636;-68
2022/06/10 01:07:51;;;;;;;17.27;15.48;;;;;;;19.10;84.38;99962.10;1710352;83;25845;-68
2022/06/10 01:10:19;;;;;;;17.42;15.38;;;;;;;19.08;84.35;99960.92;1710442;83;25632;-69
2022/06/10 01:13:24;;;;;;;17.10;15.30;;;;;;;19.06;84.62;99962.66;1710353;83;27399;-69
2022/06/10 01:16:07;;;;;;;19.10;16.05;;;;;;;19.04;84.56;99962.25;1710260;83;25704;-69
2022/06/10 01:18:53;;;;;;;18.82;15.63;;;;;;;19.01;84.71;99961.03;1710334;83;25675;-69
2022/06/10 01:21:59;;;;;;;17.87;16.00;;;;;;;18.99;84.57;99957.88;1710030;83;25650;-68
2022/06/10 01:24:57;;;;;;;17.12;15.28;;;;;;;18.97;84.45;99967.06;1710426;83;25576;-69
2022/06/10 01:28:01;;;;;;;17.05;15.23;;;;;;;18.94;84.36;99970.55;1728008;81;28211;-69
2022/06/10 01:30:54;;;;;;;16.85;15.08;;;;;;;18.93;84.65;99969.55;1729868;82;25909;-68
2022/06/10 01:33:44;;;;;;;16.25;14.55;;;;;;;18.88;84.60;99978.10;1729606;83;25400;-67
2022/06/10 01:36:49;;;;;;;20.60;15.75;;;;;;;18.84;84.62;99990.39;1646863;85;25704;-67
2022/06/10 01:40:00;;;;;;;16.87;15.18;;;;;;;18.81;84.84;99989.73;1646839;85;25694;-70
2022/06/10 01:42:40;;;;;;;16.62;14.98;;;;;;;18.78;84.89;99994.58;1646802;87;27037;-67
2022/06/10 01:45:39;;;;;;;18.07;15.72;;;;;;;18.73;84.77;100003.93;1646751;87;25961;-68
2022/06/10 01:48:17;;;;;;;16.87;15.00;;;;;;;18.70;84.95;100018.36;1633374;86;25768;-69
2022/06/10 01:50:49;;;;;;;17.37;15.58;;;;;;;18.65;84.92;100038.64;1646856;87;25672;-69
2022/06/10 01:53:33;;;;;;;17.98;16.02;;;;;;;18.61;84.89;100049.33;1646789;86;25800;-68
2022/06/10 01:56:07;;;;;;;20.80;16.93;;;;;;;18.58;85.47;100039.91;1646837;87;27428;-68
2022/06/10 02:01:36;;;;;;;18.98;16.00;;;;;;;18.56;86.02;100021.70;1642749;87;25764;-69
2022/06/10 02:04:22;;;;;;;21.57;16.60;;;;;;;18.56;86.45;100016.78;1642735;87;26439;-68
2022/06/10 02:06:59;;;;;;;19.55;16.62;;;;;;;18.56;86.63;100016.78;1642805;87;25753;-68
2022/06/10 02:09:39;;;;;;;21.15;17.70;;;;;;;18.57;86.91;100020.52;1578098;89;27525;-69
2022/06/10 02:12:29;;;;;;;20.57;17.32;;;;;;;18.57;86.90;100017.00;1610866;86;25803;-68
2022/06/10 02:15:00;;;;;;;19.25;17.20;;;;;;;18.58;86.78;100022.11;1587316;90;25478;-69
2022/06/10 02:17:32;;;;;;;19.62;16.25;;;;;;;18.59;86.76;100013.30;1587350;90;25871;-69
2022/06/10 02:20:00;;;;;;;18.95;16.30;;;;;;;18.57;86.82;100008.20;1587177;90;25969;-68
2022/06/10 02:22:41;;;;;;;20.80;17.12;;;;;;;18.57;86.83;100010.16;1587322;90;27373;-68
2022/06/10 02:25:18;;;;;;;18.62;16.60;;;;;;;18.56;87.08;100013.48;1587330;90;25661;-69
2022/06/10 02:27:52;;;;;;;18.85;16.93;;;;;;;18.55;86.92;100022.84;1587463;90;25704;-70
2022/06/10 02:30:28;;;;;;;17.85;16.00;;;;;;;18.55;86.85;100026.95;1587353;90;26317;-68
2022/06/10 02:32:57;;;;;;;20.35;17.20;;;;;;;18.55;86.96;100020.69;1587479;90;25783;-68
2022/06/10 02:35:27;;;;;;;19.30;17.15;;;;;;;18.57;87.11;100020.52;1587439;90;27330;-68
2022/06/10 02:38:17;;;;;;;20.62;17.90;;;;;;;18.56;87.15;100016.22;1595948;87;25949;-68
2022/06/10 02:40:55;;;;;;;;;;;;;;;18.56;87.24;100023.63;1598398;89;25735;-68
2022/06/10 02:43:42;;;;;;;21.23;17.75;;;;;;;18.57;87.45;100030.69;1596318;89;25757;-67
2022/06/10 02:46:16;;;;;;;22.17;17.80;;;;;;;18.56;87.46;100024.44;1596441;89;25522;-68
2022/06/10 02:49:04;;;;;;;18.87;16.52;;;;;;;18.58;87.60;100026.80;1596535;89;28136;-68
2022/06/10 02:51:32;;;;;;;19.17;17.25;;;;;;;18.57;87.67;100021.89;1606682;87;25703;-68
2022/06/10 02:54:01;;;;;;;20.85;17.73;;;;;;;18.59;87.82;100029.73;1634829;87;25555;-68
2022/06/10 02:56:29;;;;;;;23.95;17.90;;;;;;;18.60;87.83;100033.48;1634866;87;25801;-66
2022/06/10 03:02:03;;;;;;;19.37;17.37;;;;;;;18.66;88.16;100026.53;1634919;87;28082;-69
2022/06/10 03:05:10;;;;;;;22.48;18.02;;;;;;;18.71;88.23;100031.47;1634303;87;25433;-69
2022/06/10 03:08:01;;;;;;;22.02;17.50;;;;;;;18.75;88.27;100035.06;1634804;87;25794;-69
2022/06/10 03:10:51;;;;;;;17.57;15.78;;;;;;;18.79;88.17;100039.41;1632888;87;25733;-67
2022/06/10 03:13:34;;;;;;;18.95;15.88;;;;;;;18.83;88.09;100048.52;1634743;87;26373;-66
2022/06/10 03:16:41;;;;;;;16.77;15.08;;;;;;;18.84;87.69;100045.97;1634542;87;27376;-67
2022/06/10 03:19:39;;;;;;;17.75;15.78;;;;;;;18.85;87.61;100039.34;1692098;84;25686;-66
2022/06/10 03:22:33;;;;;;;21.05;16.65;;;;;;;18.88;87.63;100057.56;1692111;84;25486;-69
2022/06/10 03:25:38;;;;;;;18.17;16.27;;;;;;;18.90;87.62;100064.83;1692149;84;26330;-69
2022/06/10 03:28:24;;;;;;;17.15;15.40;;;;;;;18.91;87.40;100069.94;1666436;84;25499;-66
2022/06/10 03:31:11;;;;;;;19.92;15.13;;;;;;;18.93;87.31;100069.57;1692199;84;27351;-66
2022/06/10 03:34:29;;;;;;;18.23;15.45;;;;;;;18.92;87.29;100072.91;1691825;84;25512;-68
2022/06/10 03:37:00;;;;;;;19.50;16.95;;;;;;;18.95;87.32;100077.64;1692103;84;25679;-66
2022/06/10 03:39:27;;;;;;;18.95;16.87;;;;;;;18.97;87.46;100083.54;1692076;84;25675;-66
2022/06/10 03:42:02;;;;;;;19.92;17.20;;;;;;;18.98;87.59;100079.62;1692108;84;25767;-66
2022/06/10 03:44:28;;;;;;;20.60;17.17;;;;;;;19.02;87.82;100093.40;1691914;84;27524;-68
2022/06/10 03:46:57;;;;;;;20.08;17.90;;;;;;;19.05;87.96;100098.11;1692065;84;25722;-69
2022/06/10 03:49:40;;;;;;;20.85;17.80;;;;;;;19.08;88.12;100097.38;1692155;83;25498;-65
2022/06/10 03:52:09;;;;;;;21.52;17.40;;;;;;;19.11;88.13;100101.34;1690693;84;25689;-66
2022/06/10 03:54:35;;;;;;;20.23;17.23;;;;;;;19.14;88.42;100108.23;1692385;84;25704;-69
2022/06/10 03:57:01;;;;;;;18.95;16.30;;;;;;;19.17;88.54;100115.73;1692108;84;27423;-69
2022/06/10 03:59:27;;;;;;;20.48;17.55;;;;;;;19.22;88.62;100123.62;1691920;84;25823;-69
2022/06/10 04:01:53;;;;;;;21.00;16.57;;;;;;;19.26;88.70;100122.30;1692113;84;25643;-69
2022/06/10 04:04:19;;;;;;;19.27;17.20;;;;;;;19.31;88.52;100120.59;1691891;84;25696;-69
2022/06/10 04:06:45;;;;;;;19.23;17.15;;;;;;;19.35;88.56;100122.02;1691887;84;25665;-69
2022/06/10 04:09:13;;;;;;;28.90;19.48;;;;;;;19.40;88.78;100125.80;1691831;84;27562;-69
2022/06/10 04:11:40;;;;;;;21.55;17.42;;;;;;;19.46;88.97;100132.55;1691742;84;25761;-68
2022/06/10 04:14:07;;;;;;;17.05;15.13;;;;;;;19.52;89.18;100128.30;1692976;84;25767;-68
2022/06/10 04:16:33;;;;;;;20.08;15.48;;;;;;;19.60;89.05;100127.81;1694433;84;26635;-69
2022/06/10 04:18:59;;;;;;;17.35;14.55;;;;;;;19.67;89.01;100131.22;1694437;84;25755;-68
2022/06/10 04:21:26;;;;;;;20.05;14.93;;;;;;;19.75;89.08;100135.06;1694492;84;28174;-68
2022/06/10 04:23:55;;;;;;;17.27;15.48;;;;;;;19.81;88.92;100127.27;1694467;84;25875;-69
2022/06/10 04:26:20;;;;;;;20.00;14.55;;;;;;;19.88;88.69;100136.17;1694416;84;25770;-69
2022/06/10 04:28:49;;;;;;;21.02;14.45;;;;;;;19.94;88.29;100136.05;1694551;84;25774;-69
2022/06/10 04:31:19;;;;;;;17.43;14.27;;;;;;;20.03;88.50;100142.61;1694722;84;25740;-68
2022/06/10 04:33:47;;;;;;;15.23;13.53;;;;;;;20.11;88.54;100142.89;1693926;84;27626;-68
2022/06/10 04:36:19;;;;;;;16.85;14.05;;;;;;;20.21;88.82;100152.37;1694504;84;26238;-68
2022/06/10 04:38:46;;;;;;;14.68;13.05;;;;;;;20.31;88.49;100153.06;1694671;84;25674;-68
2022/06/10 04:41:14;;;;;;;13.50;12.20;;;;;;;20.39;88.14;100147.84;1694666;84;25690;-69
2022/06/10 04:43:40;;;;;;;16.73;12.18;;;;;;;20.47;86.91;100157.72;1694680;84;25673;-67
2022/06/10 04:46:09;;;;;;;17.42;12.68;;;;;;;20.51;85.94;100161.88;1694636;84;27452;-67
2022/06/10 04:48:36;;;;;;;15.32;12.50;;;;;;;20.57;85.90;100160.92;1694678;84;25322;-67
2022/06/10 04:51:03;;;;;;;14.15;12.68;;;;;;;20.65;85.92;100160.66;1658539;84;25621;-67
2022/06/10 04:53:29;;;;;;;13.30;11.90;;;;;;;20.75;86.33;100166.61;1694555;84;26209;-68
2022/06/10 04:55:56;;;;;;;13.60;12.25;;;;;;;20.83;85.46;100167.65;1694632;84;25905;-67
2022/06/10 04:58:22;;;;;;;16.85;13.95;;;;;;;20.95;85.77;100167.15;1694549;84;28339;-67
2022/06/10 05:00:49;;;;;;;13.68;11.73;;;;;;;21.03;84.61;100167.41;1694477;84;25983;-67
2022/06/10 05:03:16;;;;;;;17.20;12.07;;;;;;;21.10;84.13;100166.66;1694624;84;26339;-66
2022/06/10 05:05:43;;;;;;;13.28;11.38;;;;;;;21.17;83.05;100162.57;1694686;84;26313;-67
2022/06/10 05:08:14;;;;;;;15.63;11.50;;;;;;;21.20;82.58;100164.55;1694657;84;25738;-67
2022/06/10 05:10:40;;;;;;;14.00;11.88;;;;;;;21.24;81.60;100167.51;1694670;84;27367;-67
2022/06/10 05:13:07;;;;;;;13.15;11.68;;;;;;;21.26;81.38;100174.78;1694467;84;25295;-67
2022/06/10 05:15:33;;;;;;;15.10;11.48;;;;;;;;;;1691820;84;25733;-67
2022/06/10 05:18:00;;;;;;;13.25;11.93;;;;;;;21.32;81.54;100179.35;1650673;86;25800;-67
2022/06/10 05:20:31;;;;;;;12.58;11.30;;;;;;;21.41;81.52;100180.38;1691825;84;25740;-67
2022/06/10 05:22:58;;;;;;;14.75;11.55;;;;;;;21.47;81.28;100182.19;1682175;85;27272;-67
2022/06/10 05:25:24;;;;;;;14.28;12.50;;;;;;;21.53;80.81;100184.19;1682074;85;25659;-67
2022/06/10 05:27:50;;;;;;;12.23;11.03;;;;;;;21.62;81.04;100183.27;1682123;85;26171;-66
2022/06/10 05:30:23;;;;;;;15.10;11.38;;;;;;;21.71;80.25;100188.41;1682121;85;25691;-67
2022/06/10 05:32:49;;;;;;;13.98;10.93;;;;;;;21.76;79.66;100190.78;1681802;84;25750;-66
2022/06/10 05:35:17;;;;;;;16.27;11.55;;;;;;;21.86;79.84;100195.33;1682117;85;28452;-67
2022/06/10 05:37:43;;;;;;;11.63;10.60;;;;;;;21.94;79.23;100194.18;1681994;85;25739;-67
2022/06/10 05:40:13;;;;;;;13.30;10.80;;;;;;;22.06;79.03;100204.83;1685540;84;25764;-67
2022/06/10 05:42:39;;;;;;;12.63;11.33;;;;;;;22.18;78.78;100203.67;1681959;85;26190;-67
2022/06/10 05:45:08;;;;;;;13.95;12.45;;;;;;;22.27;77.89;100202.73;1706587;83;25656;-67
2022/06/10 05:47:36;;;;;;;12.15;10.90;;;;;;;22.33;77.24;100204.53;1706523;84;28238;-67
2022/06/10 05:50:08;;;;;;;13.98;11.55;;;;;;;22.36;76.74;100210.64;1706348;84;25690;-67
2022/06/10 05:52:34;;;;;;;15.58;13.20;;;;;;;22.38;76.25;100210.44;1706484;84;25761;-66
2022/06/10 05:55:05;;;;;;;12.28;10.40;;;;;;;22.46;76.11;100212.63;1709866;83;27885;-67
2022/06/10 05:57:31;;;;;;;11.88;10.03;;;;;;;22.44;75.17;100204.53;1718785;81;25587;-67
2022/06/10 05:59:59;;;;;;;13.13;11.22;;;;;;;22.49;75.19;100215.17;1716499;83;27399;-67
2022/06/10 06:02:26;;;;;;;12.75;11.08;;;;;;;22.56;75.59;100224.84;1706582;84;25412;-67
2022/06/10 06:04:53;;;;;;;16.35;10.68;;;;;;;22.69;75.43;100226.61;1706673;84;25611;-67
2022/06/10 06:07:24;;;;;;;11.43;10.28;;;;;;;22.84;75.31;100226.03;1706622;84;25682;-67
2022/06/10 06:09:51;;;;;;;14.55;10.50;;;;;;;22.97;74.92;100228.59;1691352;83;25325;-66
2022/06/10 06:12:19;;;;;;;14.53;10.18;;;;;;;23.09;74.45;100231.56;1662641;85;27343;-65
2022/06/10 06:14:45;;;;;;;14.47;10.35;;;;;;;23.15;74.09;100236.08;1665165;85;25711;-67
2022/06/10 06:17:14;;;;;;;10.32;9.40;;;;;;;23.25;73.45;100235.27;1671283;85;25579;-66
2022/06/10 06:19:41;;;;;;;13.58;9.43;;;;;;;23.28;73.46;100238.02;1671153;85;25700;-66
2022/06/10 06:22:07;;;;;;;11.38;9.50;;;;;;;23.38;73.38;100240.57;1678644;85;25521;-67
2022/06/10 06:24:35;;;;;;;11.50;9.40;;;;;;;23.61;73.09;100248.98;1678553;85;27979;-67
2022/06/10 06:27:04;;;;;;;10.60;8.73;;;;;;;23.79;72.94;100251.09;1678489;85;25744;-68
2022/06/10 06:29:30;;;;;;;10.72;8.78;;;;;;;23.95;71.98;100249.27;1678682;85;25646;-66
2022/06/10 06:31:57;;;;;;;12.00;8.98;;;;;;;24.18;71.51;100260.43;1678497;85;25782;-66
2022/06/10 06:34:25;;;;;;;9.20;8.30;;;;;;;24.40;71.12;100261.09;1678591;84;25655;-66
2022/06/10 06:36:55;;;;;;;9.93;8.90;;;;;;;24.59;70.27;100267.50;1678544;84;27274;-67
2022/06/10 06:39:24;;;;;;;11.25;8.38;;;;;;;24.79;69.38;100263.61;1678169;85;26354;-67
2022/06/10 06:41:52;;;;;;;;;;;;;;;24.93;68.70;100264.09;1680890;85;25475;-67
2022/06/10 06:44:18;;;;;;;10.65;7.60;;;;;;;25.13;68.00;100267.08;1699696;84;25865;-66
2022/06/10 06:46:46;;;;;;;9.25;8.30;;;;;;;25.24;67.14;100268.36;1700592;83;26301;-66
2022/06/10 06:49:23;;;;;;;10.68;8.43;;;;;;;25.32;66.95;100276.03;1700407;83;27878;-67
2022/06/10 06:51:50;;;;;;;8.85;8.05;;;;;;;25.37;65.86;100278.36;1697549;83;25683;-67
2022/06/10 06:54:19;;;;;;;10.35;8.25;;;;;;;25.39;65.82;100277.92;1697582;83;25423;-67
2022/06/10 06:56:47;;;;;;;12.25;8.78;;;;;;;25.45;65.17;100279.83;1697638;83;25615;-68
2022/06/10 06:59:13;;;;;;;9.55;7.28;;;;;;;25.56;65.11;100270.05;1697632;83;25768;-68
2022/06/10 07:01:39;;;;;;;11.78;8.10;;;;;;;25.68;64.38;100270.12;1697634;83;27305;-68
2022/06/10 07:04:07;;;;;;;13.10;8.68;;;;;;;25.82;64.45;100272.70;1697520;83;25771;-68
2022/06/10 07:06:35;;;;;;;7.83;7.03;;;;;;;25.95;64.26;100272.99;1697504;84;25717;-66
2022/06/10 07:09:04;;;;;;;12.37;7.62;;;;;;;26.13;63.80;100273.36;1710802;83;26346;-67
2022/06/10 07:11:32;;;;;;;8.58;7.75;;;;;;;26.27;63.39;100273.15;1698022;84;25669;-68
2022/06/10 07:13:59;;;;;;;9.50;7.90;;;;;;;26.41;62.09;100280.50;1693064;83;28087;-68
2022/06/10 07:16:26;;;;;;;11.28;7.33;;;;;;;26.40;61.69;100281.09;1683639;85;25560;-68
2022/06/10 07:18:53;;;;;;;10.20;8.98;;;;;;;26.51;61.64;100282.92;1683668;85;25675;-68
2022/06/10 07:21:20;;;;;;;11.33;8.75;;;;;;;26.67;61.76;100280.95;1683631;85;26272;-68
2022/06/10 07:23:46;;;;;;;9.63;7.00;;;;;;;26.86;61.28;100293.33;1683716;85;25585;-68
2022/06/10 07:26:12;;;;;;;8.15;7.28;;;;;;;27.03;60.83;100292.24;1683601;85;27332;-67
2022/06/10 07:28:39;;;;;;;14.47;7.12;;;;;;;27.12;59.79;100295.25;1683683;85;25308;-67
2022/06/10 07:31:05;;;;;;;7.90;7.05;;;;;;;27.20;59.16;100298.09;1683872;85;25725;-67
2022/06/10 07:33:31;;;;;;;9.25;7.42;;;;;;;27.32;58.53;100298.72;1683537;85;26312;-66
2022/06/10 07:35:57;;;;;;;8.15;7.22;;;;;;;27.41;58.38;100304.49;1683605;85;25582;-67
2022/06/10 07:38:24;;;;;;;7.37;6.60;;;;;;;27.58;58.93;100300.63;1683699;85;27425;-66
2022/06/10 07:43:35;;;;;;;8.33;6.42;;;;;;;28.08;57.68;100313.38;1683637;85;25685;-70
2022/06/10 07:46:04;;;;;;;8.73;6.08;;;;;;;28.18;56.62;100309.59;1683629;85;25691;-67
2022/06/10 07:48:31;;;;;;;10.40;7.97;;;;;;;28.30;56.57;100306.75;1683676;85;25704;-66
2022/06/10 07:50:57;;;;;;;7.83;7.03;;;;;;;28.49;55.99;100314.87;1683618;85;27415;-67
2022/06/10 07:53:23;;;;;;;11.03;6.12;;;;;;;28.67;55.16;100311.70;1683555;85;25671;-67
2022/06/10 07:55:50;;;;;;;6.10;5.53;;;;;;;28.85;55.47;100316.23;1683595;85;25639;-67
2022/06/10 07:58:18;;;;;;;8.03;5.87;;;;;;;29.02;54.27;100317.64;1683620;85;25646;-67
2022/06/10 08:00:45;;;;;;;6.83;6.20;;;;;;;29.21;54.30;100322.95;1683777;85;25645;-67
2022/06/10 08:03:12;;;;;;;6.83;6.10;;;;;;;29.44;54.14;100320.58;1683591;85;27519;-66
2022/06/10 08:05:39;;;;;;;6.90;6.30;;;;;;;29.66;53.46;100323.57;1683517;85;25425;-67
2022/06/10 08:08:05;;;;;;;6.83;6.22;;;;;;;29.71;52.30;100323.03;1683594;85;25428;-67
2022/06/10 08:10:36;;;;;;;6.37;5.80;;;;;;;29.90;52.28;100321.92;1683595;85;25679;-67
2022/06/10 08:13:04;;;;;;;7.37;6.22;;;;;;;30.06;52.20;100319.08;1683126;85;25467;-67
2022/06/10 08:15:31;;;;;;;8.70;5.95;;;;;;;30.12;50.81;100317.91;1694921;84;27898;-67
2022/06/10 08:17:58;;;;;;;7.72;6.22;;;;;;;30.13;50.75;100320.26;1705189;84;25574;-68
2022/06/10 08:23:15;;;;;;;12.10;6.67;;;;;;;30.34;50.37;100318.05;1705336;84;25830;-68
2022/06/10 08:25:42;;;;;;;10.35;6.33;;;;;;;30.49;49.97;100332.38;1705304;84;25721;-67
2022/06/10 08:28:09;;;;;;;6.55;5.95;;;;;;;30.46;49.99;100324.90;1705288;84;26852;-68
2022/06/10 08:30:37;;;;;;;5.70;5.20;;;;;;;30.74;50.06;100314.86;1705246;84;25494;-68
2022/06/10 08:33:04;;;;;;;5.83;4.62;;;;;;;31.03;49.34;100321.71;1705378;84;25643;-68
2022/06/10 08:35:34;;;;;;;4.80;4.30;;;;;;;31.23;48.73;100324.87;1705188;84;25757;-67
2022/06/10 08:38:02;;;;;;;5.30;4.80;;;;;;;31.40;48.51;100328.28;1705353;84;25646;-67
2022/06/10 08:41:03;;;;;;;6.40;4.75;;;;;;;31.65;47.66;100326.01;1705551;84;27378;-67
2022/06/10 08:43:50;;;;;;;5.33;4.40;;;;;;;31.86;47.24;100334.85;1705196;84;25409;-67
2022/06/10 08:46:36;;;;;;;4.70;3.83;;;;;;;31.58;45.10;100337.45;1665583;86;25784;-66
2022/06/10 08:49:38;;;;;;;3.52;3.22;;;;;;;31.30;45.08;100337.81;1612601;89;25874;-67
2022/06/10 08:52:30;;;;;;;3.52;3.22;;;;;;;31.24;45.00;100328.58;1600882;89;25499;-67
2022/06/10 08:55:26;;;;;;;3.50;3.20;;;;;;;31.42;45.32;100332.80;1601024;89;27950;-67
2022/06/10 08:57:56;;;;;;;5.80;3.20;;;;;;;31.63;45.19;100332.05;1600776;88;25511;-67
2022/06/10 09:00:36;;;;;;;5.35;3.47;;;;;;;31.97;45.09;100340.84;1600893;89;25827;-67
2022/06/10 09:03:14;;;;;;;3.92;3.52;;;;;;;31.95;43.72;100343.32;1600806;89;25832;-67
2022/06/10 09:05:54;;;;;;;3.60;3.30;;;;;;;31.67;43.64;100346.52;1601170;89;25565;-67
2022/06/10 09:08:28;;;;;;;4.00;3.10;;;;;;;31.87;44.41;100342.02;1600867;89;27416;-67
2022/06/10 09:11:09;;;;;;;4.37;3.77;;;;;;;32.23;44.47;100341.48;1589583;89;25739;-68
2022/06/10 09:13:40;;;;;;;4.45;3.35;;;;;;;32.39;42.83;100351.06;1600975;89;25748;-67
2022/06/10 09:16:17;;;;;;;5.30;3.83;;;;;;;32.30;42.77;100352.43;1598261;89;26556;-67
2022/06/10 09:19:07;;;;;;;4.33;3.98;;;;;;;32.46;42.81;100353.44;1596911;89;25834;-67
2022/06/10 09:22:13;;;;;;;3.72;3.40;;;;;;;32.42;42.43;100352.18;1597095;89;28084;-68
2022/06/10 09:24:50;;;;;;;5.03;3.52;;;;;;;32.20;42.13;100360.61;1651855;86;25803;-67
2022/06/10 09:27:34;;;;;;;4.12;3.58;;;;;;;31.91;41.99;100365.03;1662657;86;25738;-67
2022/06/10 09:30:04;;;;;;;4.83;3.83;;;;;;;32.10;42.62;100358.99;1715827;83;25715;-68
2022/06/10 09:32:59;;;;;;;5.75;5.25;;;;;;;32.13;41.87;100373.44;1719527;83;25673;-68
2022/06/10 09:35:48;;;;;;;9.48;5.03;;;;;;;31.99;42.27;100375.53;1719564;83;29489;-67
2022/06/10 09:38:46;;;;;;;4.35;4.03;;;;;;;32.12;42.39;100370.50;1719445;83;25705;-67
2022/06/10 09:41:51;;;;;;;4.70;4.30;;;;;;;32.33;42.01;100379.47;1718984;83;25703;-67
2022/06/10 09:44:38;;;;;;;6.25;4.83;;;;;;;32.43;42.12;100379.53;1622692;86;25687;-68
2022/06/10 09:47:12;;;;;;;4.95;4.55;;;;;;;32.54;42.19;100376.48;1614839;88;25689;-67
2022/06/10 09:49:56;;;;;;;4.97;4.50;;;;;;;32.82;41.90;100382.22;1622620;88;27809;-67
2022/06/10 09:52:42;;;;;;;6.22;4.50;;;;;;;32.91;41.41;100389.87;1621851;88;25618;-69
2022/06/10 09:55:41;;;;;;;4.58;4.15;;;;;;;32.75;40.90;100388.89;1622599;88;25563;-68
2022/06/10 09:58:35;;;;;;;8.65;4.10;;;;;;;32.84;41.26;100391.56;1599617;88;25542;-68
2022/06/10 10:01:32;;;;;;;5.22;4.28;;;;;;;33.20;41.24;100390.14;1622571;88;25819;-70
2022/06/10 10:04:19;;;;;;;5.50;4.40;;;;;;;33.04;39.62;100388.38;1622494;88;28070;-68
2022/06/10 10:07:06;;;;;;;6.70;4.25;;;;;;;32.82;40.12;100395.45;1622206;88;25707;-67
2022/06/10 10:09:59;;;;;;;6.53;5.83;;;;;;;32.66;39.85;100391.66;1619708;88;25754;-67
2022/06/10 10:12:45;;;;;;;5.37;4.30;;;;;;;32.58;40.56;100388.31;1620389;88;26317;-70
2022/06/10 10:15:42;;;;;;;5.22;4.03;;;;;;;32.62;39.97;100389.60;1620295;88;25832;-68
2022/06/10 10:18:43;;;;;;;5.10;4.60;;;;;;;32.75;40.19;100395.11;1622019;88;27329;-70
2022/06/10 10:21:23;;;;;;;4.35;3.95;;;;;;;33.08;39.49;100402.40;1677931;85;25634;-68
2022/06/10 10:23:57;;;;;;;4.33;3.80;;;;;;;33.08;39.49;100402.40;1682642;85;25787;-70
2022/06/10 10:26:32;;;;;;;4.33;3.92;;;;;;;32.84;39.45;100405.57;1691788;84;25834;-68
2022/06/10 10:29:22;;;;;;;4.78;4.20;;;;;;;32.75;39.63;100402.11;1690840;84;25642;-68
2022/06/10 10:32:16;;;;;;;3.77;3.47;;;;;;;32.64;39.66;100408.14;1691946;84;27414;-67
2022/06/10 10:34:48;;;;;;;5.90;3.90;;;;;;;32.63;39.98;100410.77;1691794;84;25688;-68
2022/06/10 10:37:31;;;;;;;5.03;4.10;;;;;;;32.72;39.28;100404.43;1691284;84;25643;-66
2022/06/10 10:40:08;;;;;;;4.55;4.20;;;;;;;32.70;39.61;100405.52;1691876;84;25880;-67
2022/06/10 10:42:39;;;;;;;4.60;3.45;;;;;;;32.87;39.32;100406.83;1679454;85;25732;-68
2022/06/10 10:45:26;;;;;;;8.75;3.87;;;;;;;32.83;38.79;100404.00;1682367;85;27527;-68
2022/06/10 10:48:01;;;;;;;9.35;7.58;;;;;;;32.84;39.21;100398.56;1691894;84;25738;-67
2022/06/10 10:50:31;;;;;;;4.85;4.35;;;;;;;32.70;39.58;100405.52;1691799;84;25478;-68
2022/06/10 10:53:02;;;;;;;3.83;3.52;;;;;;;32.80;39.57;100414.12;1691160;84;26687;-68
2022/06/10 10:55:36;;;;;;;4.17;3.80;;;;;;;32.82;39.85;100408.05;1688077;84;25601;-68
2022/06/10 10:58:17;;;;;;;4.45;4.08;;;;;;;32.68;39.63;100436.77;1691776;84;27409;-68
2022/06/10 11:00:48;;;;;;;4.42;4.03;;;;;;;32.68;39.63;100436.77;1691814;84;25508;-68
2022/06/10 11:03:34;;;;;;;4.97;3.98;;;;;;;32.54;39.33;100413.51;1690693;84;25344;-69
2022/06/10 11:06:06;;;;;;;7.75;4.40;;;;;;;32.80;39.11;100445.55;1691900;84;26307;-69
2022/06/10 11:08:39;;;;;;;4.60;4.20;;;;;;;32.61;39.28;100420.25;1691863;84;25650;-69
2022/06/10 11:11:17;;;;;;;5.25;4.40;;;;;;;32.25;39.19;100424.97;1691893;84;27335;-70
2022/06/10 11:13:52;;;;;;;6.40;4.53;;;;;;;31.81;38.98;100431.30;1691832;84;25379;-70
2022/06/10 11:16:34;;;;;;;4.85;4.45;;;;;;;31.36;39.81;100428.97;1692399;84;25565;-69
2022/06/10 11:19:25;;;;;;;5.37;4.85;;;;;;;31.14;40.77;100426.71;1694658;84;25836;-67
2022/06/10 11:22:05;;;;;;;4.70;4.30;;;;;;;31.09;40.74;100432.23;1691542;84;25696;-69
2022/06/10 11:24:42;;;;;;;27.37;21.85;;;;;;;31.13;41.33;100430.75;1694146;84;28020;-69
2022/06/10 11:27:29;;;;;;;4.55;4.10;;;;;;;31.03;40.84;100426.44;1694496;84;25670;-69
2022/06/10 11:30:06;;;;;;;5.55;4.37;;;;;;;31.00;41.44;100432.91;1694643;84;25692;-68
2022/06/10 11:32:56;;;;;;;6.22;4.40;;;;;;;31.20;41.85;100427.09;1694511;84;25723;-68
2022/06/10 11:35:39;;;;;;;4.62;4.12;;;;;;;31.52;42.26;100430.89;1694663;84;26386;-68
2022/06/10 11:38:26;;;;;;;4.62;4.17;;;;;;;31.94;42.07;100427.05;1694602;84;27326;-70
2022/06/10 11:40:57;;;;;;;4.20;3.80;;;;;;;32.02;40.86;100424.94;1692966;84;25877;-70
2022/06/10 11:43:36;;;;;;;3.98;3.58;;;;;;;31.95;41.15;100423.80;1685726;84;25686;-70
2022/06/10 11:46:24;;;;;;;4.72;3.95;;;;;;;32.23;41.49;100430.25;1719239;82;25673;-69
2022/06/10 11:49:04;;;;;;;4.47;4.08;;;;;;;32.50;40.75;100427.61;1704982;84;26234;-66
2022/06/10 11:51:57;;;;;;;5.90;4.08;;;;;;;32.44;40.83;100425.27;1705081;84;27381;-69
2022/06/10 11:54:41;;;;;;;3.67;3.37;;;;;;;32.14;40.00;100427.54;1683147;85;25639;-69
2022/06/10 12:00:19;;;;;;;;;;;;;;;31.07;40.10;100427.72;1694283;84;25705;-68
2022/06/10 12:03:14;;;;;;;3.50;3.20;;;;;;;30.83;41.02;100432.83;1694358;83;25584;-69
2022/06/10 12:06:01;;;;;;;4.40;3.25;;;;;;;30.53;40.78;100426.56;1722268;83;28238;-69
2022/06/10 12:09:02;;;;;;;6.12;2.77;;;;;;;30.49;41.89;100426.63;1722203;83;25858;-69
2022/06/10 12:11:39;;;;;;;3.98;3.20;;;;;;;30.60;41.35;100426.94;1691230;84;25695;-69
2022/06/10 12:14:28;;;;;;;3.25;2.95;;;;;;;30.70;41.66;100433.61;1691435;84;26349;-70